Time;durP1;ratioP1;P1;durP2;ratioP2;P2;SDS_P1;SDS_P2;PMS_P1;PMS_P2;Temp;Humidity;BMP_temperature;BMP_pressure;BME280_temperature;BME280_humidity;BME280_pressure;Samples;Min_cycle;Max_cycle;Signal;HPM_P1;HPM_P2
2022/11/30 00:02:52;;;;;;;5.38;3.00;;;18.50;73.80;;;;;;10484596;28;20049;-30
2022/11/30 00:07:55;;;;;;;5.93;3.13;;;18.50;73.80;;;;;;10476023;28;20041;-28
2022/11/30 00:12:57;;;;;;;10.52;3.58;;;18.50;73.90;;;;;;10483187;28;20086;-32
2022/11/30 00:17:59;;;;;;;7.40;3.53;;;18.50;73.80;;;;;;10477316;28;20041;-30
2022/11/30 00:23:02;;;;;;;5.80;3.15;;;18.50;73.80;;;;;;10474589;28;20145;-30
2022/11/30 00:28:05;;;;;;;7.65;3.50;;;18.50;73.60;;;;;;10485749;28;20049;-31
2022/11/30 00:33:06;;;;;;;5.43;2.90;;;18.50;73.50;;;;;;10480086;28;20052;-30
2022/11/30 00:38:10;;;;;;;4.93;3.03;;;18.50;73.40;;;;;;10483364;28;20110;-32
2022/11/30 00:43:11;;;;;;;4.45;2.90;;;18.50;73.50;;;;;;10482477;28;20139;-30
2022/11/30 00:48:13;;;;;;;5.07;2.78;;;18.50;73.60;;;;;;10488967;28;20136;-30
2022/11/30 00:53:16;;;;;;;5.85;3.17;;;18.50;73.40;;;;;;10501844;28;20079;-35
2022/11/30 00:58:18;;;;;;;4.57;3.00;;;18.50;73.20;;;;;;10487717;28;20466;-29
2022/11/30 01:03:20;;;;;;;4.22;2.50;;;18.50;73.30;;;;;;10509443;28;20040;-29
2022/11/30 01:08:25;;;;;;;4.45;2.90;;;18.40;73.30;;;;;;10492657;28;20057;-32
2022/11/30 01:13:27;;;;;;;4.18;2.42;;;18.40;73.20;;;;;;10475976;28;20056;-31
2022/11/30 01:18:29;;;;;;;4.35;2.58;;;18.40;73.30;;;;;;10482086;28;20048;-30
2022/11/30 01:23:32;;;;;;;3.17;2.50;;;18.40;73.30;;;;;;10464191;28;20183;-29
2022/11/30 01:28:35;;;;;;;4.82;2.65;;;18.40;73.20;;;;;;10464981;28;20139;-34
2022/11/30 01:33:37;;;;;;;3.45;2.65;;;18.40;73.10;;;;;;10499795;28;20071;-34
2022/11/30 01:38:43;;;;;;;4.70;2.50;;;18.40;73.00;;;;;;10482072;28;20048;-33
2022/11/30 01:43:48;;;;;;;3.95;2.67;;;18.40;73.10;;;;;;10467593;28;20145;-31
2022/11/30 01:48:57;;;;;;;3.97;2.30;;;18.40;72.90;;;;;;10460294;28;20068;-29
2022/11/30 01:54:02;;;;;;;6.28;2.58;;;18.40;72.80;;;;;;10491974;28;20512;-30
2022/11/30 01:59:04;;;;;;;5.47;2.17;;;18.40;72.80;;;;;;10489081;28;20094;-30
2022/11/30 02:04:11;;;;;;;4.43;2.30;;;18.40;72.70;;;;;;10496354;28;20449;-32
2022/11/30 02:09:17;;;;;;;4.63;2.45;;;18.40;72.80;;;;;;10480097;28;20049;-29
2022/11/30 02:14:31;;;;;;;3.70;2.60;;;18.40;72.80;;;;;;10483937;28;20106;-29
2022/11/30 02:20:07;;;;;;;3.65;2.33;;;18.40;72.70;;;;;;10479937;28;20041;-30
2022/11/30 02:25:19;;;;;;;3.78;2.05;;;18.40;72.50;;;;;;10483487;28;20044;-26
2022/11/30 02:30:24;;;;;;;4.47;2.45;;;18.30;72.60;;;;;;10486612;28;20242;-34
2022/11/30 02:35:29;;;;;;;2.75;1.95;;;18.40;72.60;;;;;;10472163;28;20144;-30
2022/11/30 02:40:31;;;;;;;4.70;2.08;;;18.30;72.60;;;;;;10498847;28;20048;-29
2022/11/30 02:45:42;;;;;;;5.35;2.08;;;18.30;72.60;;;;;;10487469;28;20044;-30
2022/11/30 02:50:48;;;;;;;3.83;2.00;;;18.30;72.40;;;;;;10475821;28;20209;-30
2022/11/30 02:55:50;;;;;;;3.67;1.80;;;18.30;72.40;;;;;;10477385;28;20123;-28
2022/11/30 03:00:53;;;;;;;4.00;2.10;;;18.30;72.40;;;;;;10484488;28;20099;-30
2022/11/30 03:05:55;;;;;;;4.78;2.10;;;18.30;72.30;;;;;;10468430;28;20103;-31
2022/11/30 03:11:01;;;;;;;2.92;1.63;;;18.30;72.40;;;;;;10488566;28;20102;-29
2022/11/30 03:16:07;;;;;;;2.38;1.63;;;18.30;72.30;;;;;;10499708;28;20153;-29
2022/11/30 03:21:11;;;;;;;4.60;1.88;;;18.30;72.20;;;;;;10478192;28;20052;-37
2022/11/30 03:26:13;;;;;;;6.35;1.90;;;18.30;72.20;;;;;;10486919;28;20114;-30
2022/11/30 03:31:16;;;;;;;2.65;1.80;;;18.30;72.20;;;;;;10501810;28;20049;-29
2022/11/30 03:36:18;;;;;;;3.97;2.10;;;18.30;72.20;;;;;;10487640;28;20045;-31
2022/11/30 03:41:20;;;;;;;2.08;1.77;;;18.20;72.20;;;;;;10472925;28;20401;-29
2022/11/30 03:46:24;;;;;;;4.07;1.83;;;18.20;72.30;;;;;;10512334;28;20055;-30
2022/11/30 03:51:26;;;;;;;1.95;1.50;;;18.30;72.20;;;;;;10499748;28;20898;-29
2022/11/30 03:56:29;;;;;;;2.67;1.70;;;18.20;72.10;;;;;;10479146;28;20070;-29
2022/11/30 04:01:32;;;;;;;3.50;1.63;;;18.20;72.30;;;;;;10500177;28;20045;-32
2022/11/30 04:06:34;;;;;;;2.15;1.50;;;18.20;72.40;;;;;;10486435;28;20130;-30
2022/11/30 04:11:36;;;;;;;5.35;1.65;;;18.10;72.30;;;;;;10489165;28;20147;-29
2022/11/30 04:16:39;;;;;;;2.13;1.58;;;18.20;72.20;;;;;;10487349;28;20131;-30
2022/11/30 04:21:41;;;;;;;2.47;1.50;;;18.20;72.20;;;;;;10478300;28;20450;-30
2022/11/30 04:26:44;;;;;;;2.47;1.40;;;18.10;72.20;;;;;;10483318;28;20087;-30
2022/11/30 04:31:47;;;;;;;4.10;1.27;;;18.20;72.10;;;;;;10481196;28;20075;-30
2022/11/30 04:36:49;;;;;;;3.38;1.42;;;18.10;72.10;;;;;;10490684;28;20044;-36
2022/11/30 04:41:51;;;;;;;3.78;1.30;;;18.20;72.10;;;;;;10490166;28;20060;-29
2022/11/30 04:46:54;;;;;;;1.38;1.10;;;18.10;72.10;;;;;;10478933;28;20076;-30
2022/11/30 04:51:56;;;;;;;2.50;1.38;;;18.10;72.10;;;;;;10484752;28;20507;-31
2022/11/30 04:56:58;;;;;;;1.60;1.40;;;18.10;71.90;;;;;;10501057;28;20095;-34
2022/11/30 05:02:01;;;;;;;2.40;1.58;;;18.10;71.90;;;;;;10490032;28;20051;-29
2022/11/30 05:07:03;;;;;;;2.42;1.42;;;18.10;71.90;;;;;;10485778;28;20055;-29
2022/11/30 05:12:05;;;;;;;3.67;1.50;;;18.10;71.90;;;;;;10479892;28;20129;-30
2022/11/30 05:17:08;;;;;;;2.40;1.08;;;18.10;71.90;;;;;;10466737;28;20060;-28
2022/11/30 05:22:10;;;;;;;1.77;1.10;;;18.10;71.90;;;;;;10481063;28;20086;-30
2022/11/30 05:27:12;;;;;;;4.53;1.15;;;18.10;71.80;;;;;;10470063;28;20044;-31
2022/11/30 05:32:15;;;;;;;2.77;1.10;;;18.10;71.60;;;;;;10468848;28;20131;-30
2022/11/30 05:37:17;;;;;;;2.47;1.23;;;18.10;71.60;;;;;;10468873;28;20049;-29
2022/11/30 05:42:19;;;;;;;1.73;1.20;;;18.00;71.60;;;;;;10463467;28;20127;-29
2022/11/30 05:47:22;;;;;;;2.10;0.98;;;18.10;71.60;;;;;;10461129;28;20702;-29
2022/11/30 05:52:24;;;;;;;2.33;1.23;;;18.10;72.10;;;;;;10464776;28;20140;-34
2022/11/30 05:57:26;;;;;;;2.85;1.17;;;18.10;71.30;;;;;;10476163;28;20094;-29
2022/11/30 06:02:29;;;;;;;1.17;1.08;;;18.10;71.30;;;;;;10472335;28;20104;-32
2022/11/30 06:07:31;;;;;;;1.45;1.10;;;18.10;71.30;;;;;;10474650;28;20044;-30
2022/11/30 06:12:33;;;;;;;1.45;1.20;;;18.10;71.40;;;;;;10470746;28;20109;-28
2022/11/30 06:17:37;;;;;;;3.58;1.17;;;18.10;71.50;;;;;;10472499;28;20088;-31
2022/11/30 06:22:38;;;;;;;3.33;1.10;;;18.10;71.30;;;;;;10483011;28;20060;-29
2022/11/30 06:27:42;;;;;;;1.92;1.20;;;18.10;71.40;;;;;;10472199;28;20041;-30
2022/11/30 06:32:46;;;;;;;1.60;1.10;;;18.10;71.40;;;;;;10476112;28;20428;-30
2022/11/30 06:37:48;;;;;;;1.55;1.30;;;18.10;71.40;;;;;;10466023;28;20197;-42
2022/11/30 06:42:50;;;;;;;2.83;1.17;;;18.10;71.30;;;;;;10478073;28;20045;-28
2022/11/30 06:47:56;;;;;;;3.23;1.07;;;18.10;71.40;;;;;;10466550;28;20478;-33
2022/11/30 06:52:58;;;;;;;2.90;1.50;;;18.20;71.20;;;;;;10468804;28;20502;-29
2022/11/30 06:58:05;;;;;;;1.67;1.38;;;18.10;71.40;;;;;;10474628;28;20064;-29
2022/11/30 07:15:31;;;;;;;4.60;1.65;;;18.10;71.00;;;;;;10533883;27;20128;-29
2022/11/30 07:20:33;;;;;;;6.38;1.58;;;18.10;71.90;;;;;;10521136;28;20839;-30
2022/11/30 07:30:58;;;;;;;2.60;1.42;;;18.20;72.10;;;;;;10510244;28;19920;-30
2022/11/30 07:36:00;;;;;;;3.97;1.80;;;18.20;72.10;;;;;;10514334;28;20573;-30
2022/11/30 07:41:01;;;;;;;5.35;1.85;;;18.10;72.20;;;;;;10517223;28;20131;-29
2022/11/30 07:46:05;;;;;;;3.83;1.40;;;18.10;72.40;;;;;;10534680;28;20048;-30
2022/11/30 07:51:12;;;;;;;4.30;1.38;;;18.10;72.40;;;;;;10521975;28;20549;-29
2022/11/30 07:56:15;;;;;;;2.30;1.58;;;18.10;72.60;;;;;;10515638;28;20089;-32
2022/11/30 08:01:21;;;;;;;5.07;1.92;;;18.10;72.60;;;;;;10531092;28;20040;-29
2022/11/30 08:06:24;;;;;;;5.85;1.77;;;18.10;72.70;;;;;;10509332;28;20044;-30
2022/11/30 08:11:27;;;;;;;2.63;1.65;;;18.10;73.30;;;;;;10518969;28;20091;-30
2022/11/30 08:16:34;;;;;;;2.22;1.40;;;18.10;72.50;;;;;;10552031;28;20135;-30
2022/11/30 08:21:37;;;;;;;5.05;1.80;;;18.10;72.40;;;;;;10531604;28;20135;-28
2022/11/30 08:26:38;;;;;;;5.45;1.30;;;18.10;72.40;;;;;;10500129;28;20074;-29
2022/11/30 08:31:42;;;;;;;6.33;1.50;;;18.10;72.40;;;;;;10517944;28;20083;-30
2022/11/30 08:36:43;;;;;;;3.85;1.70;;;18.10;72.40;;;;;;10493725;28;20525;-29
2022/11/30 08:41:45;;;;;;;2.03;1.33;;;18.10;72.40;;;;;;10488743;28;20076;-32
2022/11/30 08:46:49;;;;;;;2.15;1.73;;;18.00;72.20;;;;;;10492661;28;20048;-37
2022/11/30 08:51:52;;;;;;;2.83;1.67;;;18.10;72.20;;;;;;10503967;28;20052;-31
2022/11/30 08:56:54;;;;;;;2.03;1.45;;;18.10;72.20;;;;;;10493948;28;20108;-30
2022/11/30 09:01:57;;;;;;;7.38;1.98;;;18.10;72.20;;;;;;10499345;28;20061;-29
2022/11/30 09:07:00;;;;;;;2.40;1.52;;;18.10;72.10;;;;;;10502298;28;20109;-29
2022/11/30 09:12:02;;;;;;;6.70;2.38;;;18.00;72.00;;;;;;10491853;28;20126;-29
2022/11/30 09:17:05;;;;;;;3.50;1.85;;;18.10;72.00;;;;;;10494169;28;20055;-28
2022/11/30 09:22:07;;;;;;;2.17;1.45;;;18.00;72.00;;;;;;10512711;28;20109;-30
2022/11/30 09:27:10;;;;;;;4.70;1.88;;;18.00;71.80;;;;;;10488865;28;20052;-29
2022/11/30 09:32:13;;;;;;;6.85;2.40;;;18.00;71.80;;;;;;10487523;28;20056;-29
2022/11/30 09:37:15;;;;;;;6.75;1.85;;;18.00;71.70;;;;;;10480958;28;20386;-30
2022/11/30 09:42:41;;;;;;;4.97;2.28;;;18.00;71.50;;;;;;10483194;28;20081;-30
2022/11/30 09:48:24;;;;;;;2.85;1.98;;;18.00;71.40;;;;;;10484392;28;20060;-30
2022/11/30 09:53:35;;;;;;;2.60;1.90;;;18.00;71.30;;;;;;10494154;28;20244;-29
2022/11/30 09:58:48;;;;;;;4.03;1.88;;;18.00;71.10;;;;;;10483357;28;20144;-26
2022/11/30 10:03:51;;;;;;;3.90;2.13;;;18.00;71.20;;;;;;10491794;28;20048;-29
2022/11/30 10:09:06;;;;;;;5.40;2.40;;;18.00;71.00;;;;;;10473966;28;20048;-32
2022/11/30 10:14:33;;;;;;;3.53;1.98;;;18.00;70.80;;;;;;10483726;28;20056;-29
2022/11/30 10:19:53;;;;;;;2.90;2.03;;;18.00;70.90;;;;;;10483511;28;20047;-33
2022/11/30 10:25:06;;;;;;;2.60;2.05;;;18.00;70.70;;;;;;10488499;28;20127;-29
2022/11/30 10:30:14;;;;;;;2.35;2.10;;;18.10;70.40;;;;;;10503150;28;20044;-32
2022/11/30 10:35:23;;;;;;;3.28;2.50;;;18.00;70.40;;;;;;10508474;28;20055;-32
2022/11/30 10:40:34;;;;;;;4.40;2.58;;;18.10;70.20;;;;;;10494577;28;20101;-31
2022/11/30 10:45:43;;;;;;;5.10;2.20;;;18.10;70.20;;;;;;10490872;28;20147;-31
2022/11/30 10:50:47;;;;;;;4.28;2.40;;;18.10;70.10;;;;;;10508140;28;20097;-32
2022/11/30 10:55:56;;;;;;;5.40;2.33;;;18.10;70.10;;;;;;10492224;28;20114;-32
2022/11/30 11:01:05;;;;;;;4.95;2.50;;;18.00;69.90;;;;;;10485789;28;20398;-32
2022/11/30 11:06:21;;;;;;;3.25;2.50;;;18.10;70.00;;;;;;10491338;28;20036;-29
2022/11/30 11:11:33;;;;;;;4.38;2.60;;;18.10;69.70;;;;;;10483612;28;20131;-31
2022/11/30 11:16:49;;;;;;;11.67;3.03;;;18.10;69.90;;;;;;10489311;28;20045;-29
2022/11/30 11:21:53;;;;;;;3.67;1.90;;;18.10;69.70;;;;;;10493519;28;20206;-30
2022/11/30 11:26:56;;;;;;;2.58;2.30;;;18.10;69.40;;;;;;10491906;28;20056;-27
2022/11/30 11:32:23;;;;;;;13.05;5.72;;;18.10;69.70;;;;;;10491725;28;20570;-30
2022/11/30 11:37:30;;;;;;;8.43;4.90;;;17.40;71.90;;;;;;10485315;28;20055;-28
2022/11/30 11:42:37;;;;;;;5.70;3.03;;;15.20;84.10;;;;;;10488476;28;20127;-29
2022/11/30 11:47:40;;;;;;;3.67;2.67;;;16.40;81.40;;;;;;10491139;28;20044;-29
2022/11/30 11:52:44;;;;;;;5.05;2.83;;;17.70;72.60;;;;;;10490588;28;20048;-30
2022/11/30 11:57:50;;;;;;;5.75;4.80;;;17.80;71.10;;;;;;10490033;28;20501;-30
2022/11/30 12:02:57;;;;;;;5.22;3.05;;;16.40;78.60;;;;;;10488214;28;20055;-33
2022/11/30 12:08:07;;;;;;;4.20;2.97;;;17.70;72.40;;;;;;10468229;28;20059;-31
2022/11/30 12:13:13;;;;;;;4.45;2.63;;;18.00;70.20;;;;;;10492465;28;20048;-31
2022/11/30 12:18:20;;;;;;;4.90;2.30;;;18.10;69.40;;;;;;10484985;28;20044;-29
2022/11/30 12:23:54;;;;;;;8.75;2.20;;;18.30;68.80;;;;;;10508480;28;20064;-30
2022/11/30 12:29:20;;;;;;;4.43;2.75;;;18.30;68.80;;;;;;10507299;28;20055;-32
2022/11/30 12:34:33;;;;;;;3.45;2.10;;;18.40;68.70;;;;;;10503736;28;20424;-30
2022/11/30 12:39:47;;;;;;;4.30;2.38;;;18.40;68.50;;;;;;10493972;28;20048;-30
2022/11/30 12:44:58;;;;;;;6.22;2.65;;;18.50;68.20;;;;;;10492737;28;20306;-29
2022/11/30 12:50:18;;;;;;;4.72;2.20;;;18.50;68.20;;;;;;10485751;28;20045;-29
2022/11/30 12:55:32;;;;;;;5.47;2.33;;;18.60;68.00;;;;;;10477800;28;20044;-29
2022/11/30 13:00:42;;;;;;;5.95;2.38;;;18.60;68.10;;;;;;10458951;28;20145;-30
2022/11/30 13:05:46;;;;;;;3.30;1.85;;;18.60;68.00;;;;;;10461461;28;20045;-30
2022/11/30 13:10:54;;;;;;;3.25;2.28;;;18.60;68.10;;;;;;10461834;28;20045;-30
2022/11/30 13:15:58;;;;;;;2.22;1.92;;;18.60;68.10;;;;;;10462788;28;20049;-35
2022/11/30 13:21:05;;;;;;;2.70;2.00;;;18.70;68.10;;;;;;10500107;28;20094;-31
2022/11/30 13:26:19;;;;;;;3.95;1.83;;;18.70;68.10;;;;;;10492494;28;20118;-27
2022/11/30 13:31:25;;;;;;;6.70;2.05;;;18.70;68.20;;;;;;10476591;28;20048;-30
2022/11/30 13:36:36;;;;;;;4.68;2.38;;;18.70;68.00;;;;;;10479975;28;20409;-27
2022/11/30 13:41:41;;;;;;;4.75;2.08;;;18.70;68.10;;;;;;10482683;28;20048;-30
2022/11/30 13:46:48;;;;;;;12.80;5.05;;;18.70;68.10;;;;;;10482748;28;20095;-35
2022/11/30 13:51:50;;;;;;;5.10;1.92;;;17.90;64.30;;;;;;10485257;28;20093;-29
2022/11/30 13:56:54;;;;;;;4.38;2.28;;;18.50;69.50;;;;;;10493275;28;20085;-33
2022/11/30 14:02:40;;;;;;;5.18;2.83;;;18.70;68.70;;;;;;10485011;28;20482;-30
2022/11/30 14:07:45;;;;;;;6.32;2.25;;;18.70;68.40;;;;;;10479799;28;20107;-30
2022/11/30 14:12:58;;;;;;;2.83;2.20;;;18.70;68.60;;;;;;10492875;28;20060;-31
2022/11/30 14:18:05;;;;;;;5.03;2.30;;;18.80;68.30;;;;;;10500059;28;20054;-32
2022/11/30 14:23:11;;;;;;;3.47;2.13;;;18.80;68.40;;;;;;10501120;28;20111;-30
2022/11/30 14:28:18;;;;;;;3.45;1.90;;;18.80;68.20;;;;;;10495095;28;20374;-31
2022/11/30 14:33:24;;;;;;;3.17;2.05;;;18.80;68.20;;;;;;10489620;28;20060;-30
2022/11/30 14:38:28;;;;;;;3.42;2.10;;;18.80;68.30;;;;;;10480319;28;20044;-34
2022/11/30 14:43:31;;;;;;;3.22;1.45;;;18.80;68.20;;;;;;10459041;28;20056;-31
2022/11/30 14:48:33;;;;;;;3.53;2.00;;;18.90;68.20;;;;;;10462138;28;20091;-31
2022/11/30 14:53:43;;;;;;;2.50;2.25;;;18.90;68.20;;;;;;10460191;28;20041;-32
2022/11/30 14:58:55;;;;;;;5.05;1.80;;;18.90;68.20;;;;;;10459927;28;20045;-30
2022/11/30 15:04:02;;;;;;;4.75;1.80;;;18.90;68.20;;;;;;10469134;28;20039;-29
2022/11/30 15:09:04;;;;;;;4.32;2.40;;;19.00;68.30;;;;;;10488129;28;20064;-33
2022/11/30 15:14:10;;;;;;;3.90;2.22;;;19.00;68.30;;;;;;10481027;28;20152;-32
2022/11/30 15:19:21;;;;;;;9.13;2.00;;;19.00;68.50;;;;;;10465871;28;20102;-30
2022/11/30 15:24:23;;;;;;;4.05;2.10;;;19.00;68.80;;;;;;10485169;28;20049;-29
2022/11/30 15:29:29;;;;;;;4.32;2.60;;;19.00;69.10;;;;;;10489396;28;20072;-29
2022/11/30 15:34:36;;;;;;;6.18;2.38;;;19.00;69.40;;;;;;10490876;28;20079;-29
2022/11/30 15:39:39;;;;;;;3.58;2.00;;;19.00;69.50;;;;;;10495761;28;20057;-29
2022/11/30 15:44:46;;;;;;;4.40;2.53;;;19.10;69.50;;;;;;10488233;28;20054;-30
2022/11/30 15:49:51;;;;;;;3.92;2.00;;;19.10;69.60;;;;;;10498383;28;20123;-30
2022/11/30 15:54:55;;;;;;;5.60;2.20;;;19.10;69.50;;;;;;10507698;28;20473;-30
2022/11/30 16:00:08;;;;;;;3.92;2.22;;;19.10;69.50;;;;;;10492620;28;20434;-28
2022/11/30 16:05:24;;;;;;;7.28;2.55;;;19.10;69.70;;;;;;10476847;28;20051;-27
2022/11/30 16:10:29;;;;;;;2.95;2.00;;;19.20;69.60;;;;;;10493840;28;20102;-31
2022/11/30 16:15:34;;;;;;;4.57;3.00;;;19.20;69.60;;;;;;10482852;28;20056;-29
2022/11/30 16:20:36;;;;;;;4.72;2.20;;;19.20;69.50;;;;;;10493556;28;20036;-29
2022/11/30 16:25:38;;;;;;;3.47;3.00;;;19.20;69.80;;;;;;10488287;28;20482;-29
2022/11/30 16:30:42;;;;;;;4.63;2.13;;;19.10;70.00;;;;;;10481586;28;20056;-29
2022/11/30 16:35:51;;;;;;;4.60;2.22;;;19.10;70.00;;;;;;10482206;28;20690;-35
2022/11/30 16:40:54;;;;;;;3.67;2.30;;;19.10;70.10;;;;;;10469677;28;20041;-30
2022/11/30 16:45:57;;;;;;;6.05;2.00;;;19.20;70.00;;;;;;10485326;28;20204;-30
2022/11/30 16:50:59;;;;;;;3.83;2.20;;;19.10;70.10;;;;;;10489764;28;20051;-30
2022/11/30 16:56:01;;;;;;;4.28;2.38;;;19.20;70.00;;;;;;10490455;28;20090;-31
2022/11/30 17:01:05;;;;;;;3.97;2.20;;;19.20;70.10;;;;;;10487790;28;20045;-31
2022/11/30 17:06:09;;;;;;;4.30;2.75;;;19.10;70.40;;;;;;10486293;28;20036;-27
2022/11/30 17:11:17;;;;;;;4.53;2.40;;;19.10;70.40;;;;;;10481942;28;20405;-27
2022/11/30 17:16:20;;;;;;;4.22;2.60;;;19.10;70.40;;;;;;10475367;28;20052;-30
2022/11/30 17:21:26;;;;;;;6.15;2.38;;;19.10;70.10;;;;;;10484064;28;20041;-30
2022/11/30 17:26:28;;;;;;;4.95;3.05;;;19.10;70.20;;;;;;10489540;28;20075;-28
2022/11/30 17:31:31;;;;;;;5.90;3.10;;;19.10;70.60;;;;;;10501255;28;20121;-30
2022/11/30 17:36:33;;;;;;;6.43;2.90;;;19.10;70.60;;;;;;10478710;28;20080;-28
2022/11/30 17:41:35;;;;;;;5.65;2.92;;;19.10;70.50;;;;;;10466558;28;20055;-30
2022/11/30 17:46:38;;;;;;;8.95;3.60;;;19.00;70.80;;;;;;10456381;28;20378;-30
2022/11/30 17:51:40;;;;;;;6.05;3.20;;;19.00;70.60;;;;;;10471621;28;20061;-29
2022/11/30 17:56:43;;;;;;;12.40;4.57;;;19.10;70.70;;;;;;10468467;28;20084;-31
2022/11/30 18:01:46;;;;;;;7.72;3.65;;;19.00;70.60;;;;;;10480195;28;20072;-34
2022/11/30 18:06:48;;;;;;;9.20;4.10;;;19.00;70.70;;;;;;10480846;28;20048;-36
2022/11/30 18:11:50;;;;;;;9.30;3.83;;;19.10;71.10;;;;;;10481132;28;20056;-32
2022/11/30 18:16:53;;;;;;;12.38;3.88;;;19.00;71.30;;;;;;10475178;28;20087;-34
2022/11/30 18:21:55;;;;;;;8.20;4.13;;;19.00;71.60;;;;;;10482889;28;20575;-32
2022/11/30 18:26:57;;;;;;;10.05;4.00;;;19.00;71.80;;;;;;10491660;28;20044;-31
2022/11/30 18:32:00;;;;;;;7.25;3.15;;;19.00;71.80;;;;;;10493107;28;20052;-30
2022/11/30 18:37:02;;;;;;;7.55;3.55;;;19.00;71.90;;;;;;10484011;28;20071;-32
2022/11/30 18:42:03;;;;;;;12.63;4.18;;;18.90;71.90;;;;;;10475362;28;20145;-31
2022/11/30 18:47:07;;;;;;;10.02;4.07;;;19.00;72.00;;;;;;10481549;28;20086;-32
2022/11/30 18:52:09;;;;;;;9.45;4.07;;;19.00;72.10;;;;;;10485574;28;20098;-30
2022/11/30 18:57:11;;;;;;;9.75;4.32;;;18.90;72.70;;;;;;10489377;28;20056;-34
2022/11/30 19:02:17;;;;;;;10.23;3.70;;;18.90;72.30;;;;;;10484815;28;20121;-29
2022/11/30 19:07:19;;;;;;;9.50;4.80;;;19.00;72.30;;;;;;10479050;28;20072;-26
2022/11/30 19:12:21;;;;;;;9.85;3.97;;;19.00;72.10;;;;;;10485257;28;20566;-30
2022/11/30 19:17:24;;;;;;;9.68;4.07;;;19.10;71.90;;;;;;10482986;28;20531;-32
2022/11/30 19:22:29;;;;;;;17.50;4.80;;;19.10;71.80;;;;;;10486333;28;20103;-31
2022/11/30 19:27:31;;;;;;;9.20;4.75;;;19.10;71.70;;;;;;10486722;28;20044;-30
2022/11/30 19:32:35;;;;;;;8.30;4.70;;;19.20;71.60;;;;;;10486603;28;20051;-33
2022/11/30 19:37:37;;;;;;;10.43;5.18;;;19.20;71.70;;;;;;10486371;28;20072;-29
2022/11/30 19:42:39;;;;;;;7.70;3.83;;;19.10;71.70;;;;;;10490142;28;20068;-29
2022/11/30 19:47:42;;;;;;;8.13;3.92;;;19.20;71.70;;;;;;10477087;28;20126;-34
2022/11/30 19:52:45;;;;;;;17.85;4.38;;;19.10;71.70;;;;;;10493760;28;20056;-35
2022/11/30 19:57:47;;;;;;;8.65;4.85;;;19.20;71.70;;;;;;10488387;28;20057;-35
2022/11/30 20:02:50;;;;;;;9.70;3.95;;;19.20;71.60;;;;;;10487716;28;20074;-29
2022/11/30 20:07:52;;;;;;;9.88;4.05;;;19.10;71.60;;;;;;10485671;28;20131;-28
2022/11/30 20:12:54;;;;;;;9.98;4.07;;;19.20;71.70;;;;;;10477520;28;20080;-31
2022/11/30 20:17:57;;;;;;;8.70;4.22;;;19.10;71.50;;;;;;10497235;28;20049;-31
2022/11/30 20:22:58;;;;;;;9.88;4.70;;;19.10;71.50;;;;;;10483508;28;20451;-30
2022/11/30 20:28:00;;;;;;;8.95;4.85;;;19.10;71.50;;;;;;10490912;28;20143;-36
2022/11/30 20:33:04;;;;;;;8.85;4.93;;;19.10;71.20;;;;;;10493033;28;20045;-30
2022/11/30 20:38:05;;;;;;;7.70;4.50;;;19.10;71.20;;;;;;10480126;28;20076;-30
2022/11/30 20:43:07;;;;;;;9.38;5.15;;;19.10;71.20;;;;;;10495235;28;20131;-32
2022/11/30 20:48:10;;;;;;;9.53;4.60;;;19.10;70.90;;;;;;10488006;28;20106;-30
2022/11/30 20:53:12;;;;;;;9.50;5.07;;;19.10;70.80;;;;;;10493515;28;20048;-31
2022/11/30 20:58:14;;;;;;;7.60;4.63;;;19.10;70.80;;;;;;10500762;28;20051;-30
2022/11/30 21:03:18;;;;;;;11.18;4.90;;;19.10;70.70;;;;;;10486883;28;20041;-30
2022/11/30 21:08:20;;;;;;;13.90;5.07;;;19.10;70.60;;;;;;10485605;28;20063;-34
2022/11/30 21:13:21;;;;;;;11.30;5.28;;;19.10;70.60;;;;;;10480630;28;20435;-29
2022/11/30 21:18:25;;;;;;;13.23;4.70;;;19.10;70.40;;;;;;10489766;28;20128;-30
2022/11/30 21:23:27;;;;;;;13.63;5.35;;;19.10;70.30;;;;;;10483298;28;20045;-29
2022/11/30 21:28:28;;;;;;;11.85;5.32;;;19.10;70.90;;;;;;10486768;28;20078;-31
2022/11/30 21:33:32;;;;;;;12.05;4.55;;;19.00;70.10;;;;;;10488447;28;20052;-29
2022/11/30 21:38:34;;;;;;;11.35;5.35;;;19.10;70.00;;;;;;10488968;28;20090;-31
2022/11/30 21:43:36;;;;;;;11.27;5.10;;;19.00;69.90;;;;;;10487997;28;20051;-32
2022/11/30 21:48:41;;;;;;;14.82;6.00;;;19.00;69.80;;;;;;10494186;28;20048;-31
2022/11/30 21:53:45;;;;;;;12.27;5.15;;;19.00;69.70;;;;;;10486978;28;20056;-29
2022/11/30 21:58:49;;;;;;;11.98;6.63;;;19.00;69.80;;;;;;10490981;28;20059;-33
2022/11/30 22:03:52;;;;;;;15.63;4.72;;;19.00;69.70;;;;;;10483148;28;20150;-29
2022/11/30 22:08:56;;;;;;;10.95;5.22;;;18.90;70.10;;;;;;10485269;28;20052;-27
2022/11/30 22:13:58;;;;;;;7.18;5.10;;;18.90;70.10;;;;;;10481579;28;20091;-31
2022/11/30 22:19:01;;;;;;;7.07;5.07;;;18.90;69.90;;;;;;10502401;28;20425;-30
2022/11/30 22:24:05;;;;;;;11.15;5.30;;;18.80;69.90;;;;;;10483229;28;20048;-28
2022/11/30 22:29:11;;;;;;;12.80;5.28;;;18.90;70.00;;;;;;10478374;28;20135;-31
2022/11/30 22:34:14;;;;;;;10.00;5.43;;;18.80;69.80;;;;;;10488203;28;20076;-34
2022/11/30 22:39:18;;;;;;;11.43;5.15;;;18.80;69.70;;;;;;10483270;28;20048;-30
2022/11/30 22:44:20;;;;;;;10.07;5.05;;;18.80;69.70;;;;;;10477416;28;20063;-28
2022/11/30 22:49:23;;;;;;;12.32;5.30;;;18.80;69.60;;;;;;10501882;28;20782;-30
2022/11/30 22:54:25;;;;;;;11.18;5.03;;;18.70;69.40;;;;;;10488783;28;20072;-31
2022/11/30 22:59:27;;;;;;;9.40;4.63;;;18.80;70.00;;;;;;10493977;28;20070;-29
2022/11/30 23:04:30;;;;;;;10.75;4.85;;;18.70;69.10;;;;;;10495930;28;20572;-36
2022/11/30 23:09:32;;;;;;;13.77;4.85;;;18.70;69.10;;;;;;10478246;28;20098;-32
2022/11/30 23:14:34;;;;;;;7.32;4.43;;;18.70;69.00;;;;;;10489051;28;20048;-30
2022/11/30 23:19:37;;;;;;;8.02;4.22;;;18.60;69.00;;;;;;10493624;28;20068;-28
2022/11/30 23:24:39;;;;;;;7.50;4.35;;;18.60;68.80;;;;;;10486587;28;20059;-32
2022/11/30 23:29:41;;;;;;;11.85;5.13;;;18.60;68.70;;;;;;10483638;28;20099;-32
2022/11/30 23:34:44;;;;;;;10.35;5.15;;;18.60;69.10;;;;;;10483662;28;20108;-35
2022/11/30 23:39:46;;;;;;;8.43;5.05;;;18.60;68.40;;;;;;10473891;28;20493;-33
2022/11/30 23:44:48;;;;;;;8.15;4.53;;;18.60;68.20;;;;;;10484202;28;20126;-34
2022/11/30 23:49:51;;;;;;;11.50;4.70;;;18.50;68.30;;;;;;10479248;28;20068;-34
2022/11/30 23:54:53;;;;;;;8.77;4.85;;;18.50;68.20;;;;;;10483545;28;20044;-31
2022/11/30 23:59:55;;;;;;;8.57;4.60;;;18.50;68.20;;;;;;10506082;28;20072;-29
